Weather at Chicago O'Hare International Airport

Public forecast

Using degrees Fahrenheit for public forecast. Weather courtesy of forecast.io.

Current aviation weather report (METAR) for Chicago O'Hare International Airport

Retrieved 2021/10/22 05:51 UTC (50 minutes ago):

KORD 220551Z 34004KT 10SM BKN060 BKN250 07/03 A3005 RMK AO2 SLP177 60000 T00670033 10111 20067 401830067 58002

Aviation forecast (TAF) for Chicago O'Hare International Airport

Retrieved 2021/10/22 06:39 UTC (2 minutes ago):

TAF KORD 220536Z 2206/2312 34007KT P6SM FEW025 BKN035 FM220900 32009KT P6SM FEW025 SCT250 FM221400 32009KT P6SM SCT030 BKN100 TEMPO 2215/2218 BKN020 FM222300 34004KT P6SM SCT200